TimeCST,TemperatureF,Dew PointF,Humidity,Sea Level PressureIn,VisibilityMPH,Wind Direction,Wind SpeedMPH,Gust SpeedMPH,PrecipitationIn,Events,Conditions,WindDirDegrees,DateUTC
12:20 AM,42.8,42.8,100,29.83,4.0,South,4.6,-,0.01,,Overcast,180,2012-12-29 06:20:00
12:25 AM,42.8,42.8,100,29.83,2.5,South,4.6,-,0.02,,Overcast,180,2012-12-29 06:25:00
12:39 AM,42.8,42.8,100,29.83,3.0,South,4.6,-,0.02,,Overcast,180,2012-12-29 06:39:00
12:51 AM,42.8,42.8,100,29.83,3.0,South,4.6,-,0.02,,Overcast,190,2012-12-29 06:51:00
12:53 AM,43.0,42.1,97,29.84,3.0,SSW,4.6,-,0.02,,Overcast,200,2012-12-29 06:53:00
1:11 AM,42.8,41.0,93,29.83,2.5,WNW,8.1,16.1,0.01,,Overcast,290,2012-12-29 07:11:00
1:21 AM,42.8,41.0,93,29.84,4.0,West,9.2,-,0.01,,Overcast,280,2012-12-29 07:21:00
1:53 AM,42.1,39.9,92,29.86,10.0,West,12.7,-,0.02,,Overcast,280,2012-12-29 07:53:00
2:01 AM,42.8,39.2,87,29.86,10.0,WNW,12.7,-,N/A,,Overcast,290,2012-12-29 08:01:00
2:53 AM,39.9,37.9,93,29.89,10.0,West,16.1,-,N/A,,Overcast,280,2012-12-29 08:53:00
3:28 AM,39.2,35.6,87,29.89,10.0,WNW,12.7,23.0,N/A,,Overcast,300,2012-12-29 09:28:00
3:53 AM,39.9,35.1,83,29.91,10.0,WNW,15.0,-,N/A,,Overcast,300,2012-12-29 09:53:00
4:53 AM,37.9,33.1,83,29.94,10.0,NW,18.4,26.5,N/A,,Overcast,310,2012-12-29 10:53:00
5:53 AM,37.0,33.1,86,29.98,10.0,NW,13.8,23.0,N/A,,Overcast,310,2012-12-29 11:53:00
6:53 AM,37.0,33.1,86,30.01,10.0,NW,10.4,-,N/A,,Overcast,310,2012-12-29 12:53:00
7:53 AM,37.0,33.1,86,30.03,8.0,NW,10.4,-,N/A,,Overcast,310,2012-12-29 13:53:00
8:01 AM,37.4,33.8,87,30.03,8.0,WNW,11.5,-,N/A,,Overcast,300,2012-12-29 14:01:00
8:42 AM,35.6,32.0,87,30.05,7.0,NW,11.5,21.9,N/A,,Overcast,310,2012-12-29 14:42:00
8:53 AM,37.0,32.0,82,30.06,8.0,WNW,16.1,21.9,N/A,,Overcast,300,2012-12-29 14:53:00
9:37 AM,35.6,28.4,75,30.08,10.0,NW,18.4,29.9,N/A,,Overcast,320,2012-12-29 15:37:00
9:53 AM,36.0,28.0,73,30.10,10.0,NW,15.0,24.2,N/A,,Overcast,320,2012-12-29 15:53:00
10:53 AM,36.0,28.0,73,30.10,9.0,WNW,16.1,-,N/A,,Overcast,300,2012-12-29 16:53:00
11:51 AM,35.6,28.4,75,30.09,9.0,WNW,10.4,-,N/A,,Overcast,300,2012-12-29 17:51:00
11:53 AM,36.0,30.0,79,30.10,9.0,WNW,9.2,-,N/A,,Overcast,300,2012-12-29 17:53:00
12:53 PM,36.0,28.9,76,30.11,8.0,WNW,12.7,19.6,N/A,,Overcast,300,2012-12-29 18:53:00
1:53 PM,36.0,28.0,73,30.12,9.0,WNW,16.1,23.0,N/A,,Overcast,290,2012-12-29 19:53:00
2:53 PM,36.0,27.0,70,30.15,10.0,NW,15.0,-,N/A,,Overcast,310,2012-12-29 20:53:00
3:53 PM,34.0,27.0,75,30.20,6.0,NW,15.0,-,N/A,,Haze,310,2012-12-29 21:53:00
5:53 PM,33.1,26.1,75,30.26,10.0,NW,12.7,20.7,N/A,,Overcast,310,2012-12-29 23:53:00
6:53 PM,33.1,26.1,75,30.30,9.0,WNW,11.5,-,N/A,,Overcast,300,2012-12-30 00:53:00
7:53 PM,33.1,25.0,72,30.32,9.0,NW,9.2,-,N/A,,Overcast,310,2012-12-30 01:53:00
8:53 PM,32.0,24.1,73,30.34,9.0,WNW,10.4,-,N/A,,Overcast,300,2012-12-30 02:53:00
9:53 PM,32.0,24.1,73,30.38,9.0,WNW,11.5,-,N/A,,Overcast,300,2012-12-30 03:53:00
10:18 PM,32.0,24.8,75,30.37,9.0,WNW,11.5,-,N/A,,Overcast,300,2012-12-30 04:18:00
10:45 PM,32.0,24.8,75,30.38,9.0,WNW,10.4,-,N/A,,Overcast,300,2012-12-30 04:45:00
10:53 PM,32.0,24.1,73,30.39,8.0,WNW,10.4,-,N/A,,Overcast,300,2012-12-30 04:53:00
11:14 PM,32.0,24.8,75,30.38,9.0,NW,12.7,-,N/A,,Overcast,320,2012-12-30 05:14:00
11:53 PM,30.9,23.0,72,30.40,9.0,NW,9.2,-,N/A,,Overcast,320,2012-12-30 05:53:00